Autodesk EBITDA Margin 2006-2019 | ADSK

Current and historical EBITDA (Earnings Before Interest, Taxes, Depreciation and Amortization) margin for Autodesk (ADSK) over the last 10 years. The current EBITDA margin for Autodesk as of April 30, 2019 is .
Autodesk EBITDA Margin Historical Data
Date TTM Revenue TTM EBITDA EBITDA Margin
2019-04-30 $2.75B $0.16B 5.79%
2019-01-31 $2.57B $0.07B 2.72%
2018-10-31 $2.39B $-0.15B -6.33%
2018-07-31 $2.24B $-0.26B -11.78%
2018-04-30 $2.13B $-0.34B -15.95%
2018-01-31 $2.06B $-0.40B -19.45%
2017-10-31 $1.98B $-0.38B -19.02%
2017-07-31 $1.96B $-0.39B -19.83%
2017-04-30 $2.01B $-0.34B -16.90%
2017-01-31 $2.03B $-0.36B -17.72%
2016-10-31 $2.20B $-0.20B -9.18%
2016-07-31 $2.31B $-0.10B -4.11%
2016-04-30 $2.37B $-0.02B -1.01%
2016-01-31 $2.51B $0.15B 5.87%
2015-10-31 $2.52B $0.17B 6.78%
2015-07-31 $2.54B $0.20B 7.91%
2015-04-30 $2.57B $0.25B 9.62%
2015-01-31 $2.51B $0.27B 10.58%
2014-10-31 $2.44B $0.30B 12.36%
2014-07-31 $2.37B $0.35B 14.71%
2014-04-30 $2.30B $0.38B 16.46%
2014-01-31 $2.27B $0.42B 18.25%
2013-10-31 $2.29B $0.45B 19.57%
2013-07-31 $2.29B $0.42B 18.32%
2013-04-30 $2.29B $0.43B 18.53%
2013-01-31 $2.31B $0.43B 18.72%
2012-10-31 $2.30B $0.44B 18.97%
2012-07-31 $2.30B $0.49B 21.23%
2012-04-30 $2.28B $0.49B 21.57%
2012-01-31 $2.22B $0.47B 21.26%
2011-10-31 $2.15B $0.45B 20.73%
2011-07-31 $2.08B $0.42B 20.25%
2011-04-30 $2.01B $0.40B 20.04%
2011-01-31 $1.95B $0.38B 19.30%
2010-10-31 $1.88B $0.36B 19.30%
2010-07-31 $1.82B $0.32B 17.68%
2010-04-30 $1.76B $0.25B 14.01%
2010-01-31 $1.71B $0.20B 11.55%
2009-10-31 $1.75B $0.14B 7.84%
2009-07-31 $1.94B $0.25B 12.75%
2009-04-30 $2.14B $0.36B 16.66%
2009-01-31 $2.32B $0.47B 20.08%
2008-10-31 $2.43B $0.58B 24.08%
2008-07-31 $2.36B $0.54B 22.92%
2008-04-30 $2.26B $0.53B 23.34%
2008-01-31 $2.17B $0.51B 23.34%
2007-10-31 $2.07B $0.50B 24.15%
2007-07-31 $1.99B $0.46B 23.18%
2007-04-30 $1.91B $0.45B 23.42%
2007-01-31 $1.84B $0.40B 21.96%
2006-10-31 $1.77B $0.38B 21.56%
2006-07-31 $1.69B $0.40B 23.88%
2006-04-30 $1.62B $0.39B 24.15%
2006-01-31 $1.54B $0.42B 27.44%
2005-10-31 $1.48B $0.40B 27.05%
Sector Industry Market Cap Revenue
Computer and Technology Computer Software $38.150B $2.570B
Autodesk, Inc., is a leader in 3D design, engineering and entertainment software. Since its introduction of AutoCAD software in 1982, Autodesk continues to develop the broadest portfolio of 3D software for global markets. Customers across the manufacturing, architecture, building, construction, and media and entertainment industries-including the last 19 Academy Award winners for Best Visual Effects-use Autodesk software to design, visualize, and simulate their ideas before they're ever built or created. From blockbuster visual effects and buildings that create their own energy, to electric cars and the batteries that power them, the work of our 3D software customers is everywhere you look. Through their apps for iPhone, iPad, iPod, and Android, they're also making design technology accessible to professional designers and amateur designers, homeowners, students, and casual creators - anyone who wants to create and share their ideas with the world.
Stock Name Country Market Cap PE Ratio
Microsoft (MSFT) United States $1000.000B 30.80
Oracle (ORCL) United States $198.581B 18.55
SAP SE (SAP) Germany $168.465B 32.49
Adobe (ADBE) United States $149.884B 53.60
Salesforce, Inc (CRM) United States $123.888B 102.34
Intuit (INTU) United States $73.249B 47.33
VMware (VMW) United States $70.470B 35.00
Dassault Systemes SA (DASTY) France $40.792B 45.64
Cadence Design Systems (CDNS) United States $21.133B 53.71
Synopsys (SNPS) United States $20.605B 34.71
ANSYS (ANSS) United States $17.702B 40.72
SS&C Technologies Holdings (SSNC) United States $14.899B 19.76
Symantec (SYMC) United States $14.120B 19.86
Citrix Systems (CTXS) United States $13.367B 23.78
Open Text (OTEX) Canada $11.532B 41.91
PTC (PTC) United States $10.402B 85.30
Aspen Technology (AZPN) United States $9.309B 48.38
Trend Micro (TMICY) Japan $6.276B 24.28
Pegasystems (PEGA) United States $6.091B 0.00
Konami (KNMCY) Japan $6.007B 21.36
Nuance Communications (NUAN) United States $4.764B 18.45
Manhattan Associates (MANH) United States $4.640B 45.75
Blackbaud (BLKB) United States $4.148B 52.06
ACI Worldwide (ACIW) United States $3.831B 49.50
Cornerstone OnDemand (CSOD) United States $3.688B 0.00
Verint Systems (VRNT) United States $3.652B 21.95
Descartes Systems Group (DSGX) Canada $3.149B 93.57
PROS Holdings (PRO) United States $2.577B 0.00
CommVault Systems (CVLT) United States $2.267B 96.73
Bottomline Technologies (EPAY) United States $1.889B 57.89
Progress Software (PRGS) United States $1.860B 19.80
MicroStrategy (MSTR) United States $1.266B 158.49
Monotype Imaging Holdings (TYPE) United States $0.715B 22.43
QAD (QADB) United States $0.648B 117.82
Rosetta Stone (RST) United States $0.576B 0.00
Simulations Plus (SLP) United States $0.559B 72.52
Magic Software Enterprises (MGIC) Israel $0.434B 15.86
Avid Technology (AVID) United States $0.429B 32.94
American Software (AMSWA) United States $0.415B 46.00
OptimizeRx (OPRX) United States $0.185B 383.00
GlobalSCAPE (GSB) United States $0.163B 24.33
Icad Inc (ICAD) United States $0.133B 0.00
Park City (PCYG) United States $0.102B 22.22
Smith Micro Software (SMSI) United States $0.097B 43.43
ServiceSource (SREV) United States $0.095B 0.00
ImageWare Systems (IWSY) United States $0.090B 0.00
NetSol Technologies (NTWK) United States $0.066B 10.43